sensor_id;sensor_type;location;lat;lon;timestamp;noise_LAeq;noise_LA_min;noise_LA_max;noise_LA01;noise_LA95
70245;Laerm;57637;49.272;8.590;2023-04-12T00:00:59;37.65;32.57;48.51;;
70245;Laerm;57637;49.272;8.590;2023-04-12T00:03:25;37.33;32.27;44.40;;
70245;Laerm;57637;49.272;8.590;2023-04-12T00:05:51;36.02;31.75;46.81;;
70245;Laerm;57637;49.272;8.590;2023-04-12T00:08:21;36.85;31.50;43.93;;
70245;Laerm;57637;49.272;8.590;2023-04-12T00:10:58;36.58;31.53;46.06;;
70245;Laerm;57637;49.272;8.590;2023-04-12T00:13:24;39.58;34.54;46.08;;
70245;Laerm;57637;49.272;8.590;2023-04-12T00:15:50;36.97;31.59;44.68;;
70245;Laerm;57637;49.272;8.590;2023-04-12T00:18:15;36.69;32.48;47.07;;
70245;Laerm;57637;49.272;8.590;2023-04-12T00:20:42;35.05;31.28;44.23;;
70245;Laerm;57637;49.272;8.590;2023-04-12T00:23:07;34.69;30.97;43.27;;
70245;Laerm;57637;49.272;8.590;2023-04-12T00:25:34;34.55;31.22;45.50;;
70245;Laerm;57637;49.272;8.590;2023-04-12T00:28:01;35.63;31.14;42.51;;
70245;Laerm;57637;49.272;8.590;2023-04-12T00:30:26;33.89;29.92;39.17;;
70245;Laerm;57637;49.272;8.590;2023-04-12T00:32:52;32.34;29.99;45.34;;
70245;Laerm;57637;49.272;8.590;2023-04-12T00:35:17;31.61;29.64;38.08;;
70245;Laerm;57637;49.272;8.590;2023-04-12T00:37:43;31.55;29.76;35.57;;
70245;Laerm;57637;49.272;8.590;2023-04-12T00:40:09;32.05;29.86;44.51;;
70245;Laerm;57637;49.272;8.590;2023-04-12T00:42:37;32.05;30.06;42.14;;
70245;Laerm;57637;49.272;8.590;2023-04-12T00:45:03;32.42;30.12;47.34;;
70245;Laerm;57637;49.272;8.590;2023-04-12T00:47:29;31.99;29.89;40.85;;
70245;Laerm;57637;49.272;8.590;2023-04-12T00:49:55;32.58;30.18;53.90;;
70245;Laerm;57637;49.272;8.590;2023-04-12T00:52:20;32.81;30.73;46.17;;
70245;Laerm;57637;49.272;8.590;2023-04-12T00:54:46;33.29;31.36;42.98;;
70245;Laerm;57637;49.272;8.590;2023-04-12T00:57:12;33.08;31.27;41.18;;
70245;Laerm;57637;49.272;8.590;2023-04-12T00:59:37;33.64;31.58;40.53;;
70245;Laerm;57637;49.272;8.590;2023-04-12T01:02:02;34.11;31.80;42.62;;
70245;Laerm;57637;49.272;8.590;2023-04-12T01:04:28;35.35;32.25;54.30;;
70245;Laerm;57637;49.272;8.590;2023-04-12T01:15:13;35.08;32.29;48.21;;
70245;Laerm;57637;49.272;8.590;2023-04-12T01:18:11;34.66;32.43;43.59;;
70245;Laerm;57637;49.272;8.590;2023-04-12T01:20:41;36.72;33.74;59.74;;
70245;Laerm;57637;49.272;8.590;2023-04-12T01:28:21;36.22;32.94;52.15;;
70245;Laerm;57637;49.272;8.590;2023-04-12T01:30:49;36.60;33.10;42.72;;
70245;Laerm;57637;49.272;8.590;2023-04-12T01:33:16;36.12;32.72;56.25;;
70245;Laerm;57637;49.272;8.590;2023-04-12T01:35:43;36.10;33.13;43.31;;
70245;Laerm;57637;49.272;8.590;2023-04-12T01:38:08;36.30;32.91;47.02;;
70245;Laerm;57637;49.272;8.590;2023-04-12T01:40:34;37.06;33.32;44.49;;
70245;Laerm;57637;49.272;8.590;2023-04-12T01:43:07;41.19;37.79;55.52;;
70245;Laerm;57637;49.272;8.590;2023-04-12T01:45:33;40.07;36.40;56.95;;
70245;Laerm;57637;49.272;8.590;2023-04-12T01:48:00;39.40;36.22;48.59;;
70245;Laerm;57637;49.272;8.590;2023-04-12T01:53:27;39.99;35.48;60.49;;
70245;Laerm;57637;49.272;8.590;2023-04-12T01:55:59;39.29;34.11;47.80;;
70245;Laerm;57637;49.272;8.590;2023-04-12T01:58:27;41.10;35.94;47.89;;
70245;Laerm;57637;49.272;8.590;2023-04-12T02:00:54;39.87;35.78;46.93;;
70245;Laerm;57637;49.272;8.590;2023-04-12T02:03:21;37.30;33.76;43.60;;
70245;Laerm;57637;49.272;8.590;2023-04-12T02:05:48;36.28;33.55;43.08;;
70245;Laerm;57637;49.272;8.590;2023-04-12T02:08:15;37.55;34.15;47.35;;
70245;Laerm;57637;49.272;8.590;2023-04-12T02:10:41;38.28;35.56;42.65;;
70245;Laerm;57637;49.272;8.590;2023-04-12T02:13:06;40.46;36.95;55.27;;
70245;Laerm;57637;49.272;8.590;2023-04-12T02:15:32;40.68;37.31;46.45;;
70245;Laerm;57637;49.272;8.590;2023-04-12T02:17:58;40.05;36.04;45.58;;
70245;Laerm;57637;49.272;8.590;2023-04-12T02:20:24;40.82;37.16;46.45;;
70245;Laerm;57637;49.272;8.590;2023-04-12T02:22:50;42.07;38.40;52.80;;
70245;Laerm;57637;49.272;8.590;2023-04-12T02:25:16;42.72;38.88;49.23;;
70245;Laerm;57637;49.272;8.590;2023-04-12T02:27:44;42.68;38.86;48.67;;
70245;Laerm;57637;49.272;8.590;2023-04-12T02:30:11;45.58;40.43;51.94;;
70245;Laerm;57637;49.272;8.590;2023-04-12T02:32:37;44.93;39.53;51.66;;
70245;Laerm;57637;49.272;8.590;2023-04-12T02:35:29;44.32;39.06;50.29;;
70245;Laerm;57637;49.272;8.590;2023-04-12T02:37:55;44.82;39.88;50.99;;
70245;Laerm;57637;49.272;8.590;2023-04-12T02:40:20;45.55;41.02;50.17;;
70245;Laerm;57637;49.272;8.590;2023-04-12T02:42:46;43.75;40.05;48.18;;
70245;Laerm;57637;49.272;8.590;2023-04-12T02:45:11;43.90;40.10;48.91;;
70245;Laerm;57637;49.272;8.590;2023-04-12T02:47:36;44.28;39.40;51.06;;
70245;Laerm;57637;49.272;8.590;2023-04-12T02:50:03;44.93;40.71;50.25;;
70245;Laerm;57637;49.272;8.590;2023-04-12T02:52:29;45.49;40.53;52.02;;
70245;Laerm;57637;49.272;8.590;2023-04-12T02:54:55;45.11;41.13;51.42;;
70245;Laerm;57637;49.272;8.590;2023-04-12T02:57:20;45.04;40.95;50.02;;
70245;Laerm;57637;49.272;8.590;2023-04-12T02:59:50;45.06;41.27;49.49;;
70245;Laerm;57637;49.272;8.590;2023-04-12T03:02:17;45.55;41.67;50.77;;
70245;Laerm;57637;49.272;8.590;2023-04-12T03:04:43;45.53;41.84;49.41;;
70245;Laerm;57637;49.272;8.590;2023-04-12T03:07:15;46.33;42.31;55.52;;
70245;Laerm;57637;49.272;8.590;2023-04-12T03:09:40;45.36;41.86;60.70;;
70245;Laerm;57637;49.272;8.590;2023-04-12T03:12:06;45.96;41.80;51.02;;
70245;Laerm;57637;49.272;8.590;2023-04-12T03:14:32;46.11;41.35;52.31;;
70245;Laerm;57637;49.272;8.590;2023-04-12T03:16:57;45.92;41.74;52.10;;
70245;Laerm;57637;49.272;8.590;2023-04-12T03:19:23;45.74;41.64;60.76;;
70245;Laerm;57637;49.272;8.590;2023-04-12T03:21:48;44.64;41.16;50.67;;
70245;Laerm;57637;49.272;8.590;2023-04-12T03:24:13;46.71;42.51;57.09;;
70245;Laerm;57637;49.272;8.590;2023-04-12T03:26:39;47.35;42.17;57.87;;
70245;Laerm;57637;49.272;8.590;2023-04-12T03:29:05;46.62;41.76;57.97;;
70245;Laerm;57637;49.272;8.590;2023-04-12T03:31:33;48.06;43.69;58.24;;
70245;Laerm;57637;49.272;8.590;2023-04-12T03:33:59;48.63;43.89;59.31;;
70245;Laerm;57637;49.272;8.590;2023-04-12T03:36:24;48.83;45.12;58.39;;
70245;Laerm;57637;49.272;8.590;2023-04-12T03:38:51;48.62;44.99;58.09;;
70245;Laerm;57637;49.272;8.590;2023-04-12T03:41:17;49.14;45.55;56.89;;
70245;Laerm;57637;49.272;8.590;2023-04-12T03:43:42;49.09;45.32;59.96;;
70245;Laerm;57637;49.272;8.590;2023-04-12T03:46:08;48.75;45.22;57.16;;
70245;Laerm;57637;49.272;8.590;2023-04-12T03:48:33;49.35;45.77;55.46;;
70245;Laerm;57637;49.272;8.590;2023-04-12T03:50:59;49.16;45.36;58.73;;
70245;Laerm;57637;49.272;8.590;2023-04-12T03:53:25;48.78;44.86;54.66;;
70245;Laerm;57637;49.272;8.590;2023-04-12T03:55:55;48.92;45.05;54.70;;
70245;Laerm;57637;49.272;8.590;2023-04-12T03:58:21;53.67;44.89;68.85;;
70245;Laerm;57637;49.272;8.590;2023-04-12T04:00:46;56.71;44.46;69.84;;
70245;Laerm;57637;49.272;8.590;2023-04-12T04:03:13;56.40;43.34;69.95;;
70245;Laerm;57637;49.272;8.590;2023-04-12T04:05:39;56.70;44.12;70.76;;
70245;Laerm;57637;49.272;8.590;2023-04-12T04:08:04;56.30;44.62;70.37;;
70245;Laerm;57637;49.272;8.590;2023-04-12T04:10:31;55.81;45.77;69.81;;
70245;Laerm;57637;49.272;8.590;2023-04-12T04:12:57;57.23;45.44;72.37;;
70245;Laerm;57637;49.272;8.590;2023-04-12T04:15:24;57.00;46.07;71.32;;
70245;Laerm;57637;49.272;8.590;2023-04-12T04:17:49;56.97;45.46;72.75;;
70245;Laerm;57637;49.272;8.590;2023-04-12T04:20:14;54.38;44.89;69.27;;
70245;Laerm;57637;49.272;8.590;2023-04-12T04:22:42;54.64;46.00;67.89;;
70245;Laerm;57637;49.272;8.590;2023-04-12T04:25:08;55.29;45.58;69.27;;
70245;Laerm;57637;49.272;8.590;2023-04-12T04:27:34;52.26;45.61;70.43;;
70245;Laerm;57637;49.272;8.590;2023-04-12T04:30:03;50.54;45.78;60.77;;
70245;Laerm;57637;49.272;8.590;2023-04-12T04:32:30;49.78;45.62;60.68;;
70245;Laerm;57637;49.272;8.590;2023-04-12T04:34:57;53.14;46.23;69.46;;
70245;Laerm;57637;49.272;8.590;2023-04-12T04:37:26;53.18;45.86;66.58;;
70245;Laerm;57637;49.272;8.590;2023-04-12T04:39:52;51.06;45.73;67.37;;
70245;Laerm;57637;49.272;8.590;2023-04-12T04:42:17;52.60;45.22;65.76;;
70245;Laerm;57637;49.272;8.590;2023-04-12T04:44:43;54.11;44.17;66.86;;
70245;Laerm;57637;49.272;8.590;2023-04-12T04:47:09;52.95;45.19;68.37;;
70245;Laerm;57637;49.272;8.590;2023-04-12T04:49:35;55.05;45.87;68.03;;
70245;Laerm;57637;49.272;8.590;2023-04-12T04:52:07;54.20;45.02;65.75;;
70245;Laerm;57637;49.272;8.590;2023-04-12T04:54:32;53.49;44.45;65.27;;
70245;Laerm;57637;49.272;8.590;2023-04-12T04:56:58;53.47;44.24;66.95;;
70245;Laerm;57637;49.272;8.590;2023-04-12T04:59:23;53.81;45.38;66.85;;
70245;Laerm;57637;49.272;8.590;2023-04-12T05:01:49;53.08;44.97;68.62;;
70245;Laerm;57637;49.272;8.590;2023-04-12T05:04:16;54.77;45.07;74.32;;
70245;Laerm;57637;49.272;8.590;2023-04-12T05:06:41;51.36;44.33;67.04;;
70245;Laerm;57637;49.272;8.590;2023-04-12T05:09:06;50.02;43.20;64.03;;
70245;Laerm;57637;49.272;8.590;2023-04-12T05:11:32;51.86;45.12;67.18;;
70245;Laerm;57637;49.272;8.590;2023-04-12T05:13:57;50.36;44.57;61.88;;
70245;Laerm;57637;49.272;8.590;2023-04-12T05:16:22;51.14;45.24;65.80;;
70245;Laerm;57637;49.272;8.590;2023-04-12T05:18:48;52.10;45.53;72.27;;
70245;Laerm;57637;49.272;8.590;2023-04-12T05:21:13;50.33;46.26;66.50;;
70245;Laerm;57637;49.272;8.590;2023-04-12T05:23:45;50.99;44.80;71.45;;
70245;Laerm;57637;49.272;8.590;2023-04-12T05:26:11;49.27;43.65;65.41;;
70245;Laerm;57637;49.272;8.590;2023-04-12T05:28:36;50.04;44.44;62.50;;
70245;Laerm;57637;49.272;8.590;2023-04-12T05:31:02;51.45;44.90;70.31;;
70245;Laerm;57637;49.272;8.590;2023-04-12T05:33:28;49.59;44.27;67.58;;
70245;Laerm;57637;49.272;8.590;2023-04-12T05:35:53;48.91;44.37;59.56;;
70245;Laerm;57637;49.272;8.590;2023-04-12T05:38:18;50.08;45.00;66.04;;
70245;Laerm;57637;49.272;8.590;2023-04-12T05:40:44;49.77;44.34;63.60;;
70245;Laerm;57637;49.272;8.590;2023-04-12T05:43:09;51.50;44.42;72.48;;
70245;Laerm;57637;49.272;8.590;2023-04-12T05:45:39;50.51;45.91;61.50;;
70245;Laerm;57637;49.272;8.590;2023-04-12T05:48:05;48.92;45.25;58.82;;
70245;Laerm;57637;49.272;8.590;2023-04-12T05:50:30;49.25;44.41;65.08;;
70245;Laerm;57637;49.272;8.590;2023-04-12T05:52:56;48.92;44.83;57.86;;
70245;Laerm;57637;49.272;8.590;2023-04-12T05:55:21;49.11;44.01;56.43;;
70245;Laerm;57637;49.272;8.590;2023-04-12T05:57:46;49.44;44.39;63.76;;
70245;Laerm;57637;49.272;8.590;2023-04-12T06:00:12;49.85;45.18;61.90;;
70245;Laerm;57637;49.272;8.590;2023-04-12T06:02:44;50.98;44.71;65.67;;
70245;Laerm;57637;49.272;8.590;2023-04-12T06:05:10;50.24;44.02;67.51;;
70245;Laerm;57637;49.272;8.590;2023-04-12T06:07:38;57.27;44.82;72.88;;
70245;Laerm;57637;49.272;8.590;2023-04-12T06:10:04;56.94;45.01;72.52;;
70245;Laerm;57637;49.272;8.590;2023-04-12T06:12:30;56.37;44.33;82.25;;
70245;Laerm;57637;49.272;8.590;2023-04-12T06:14:55;52.32;45.16;69.12;;
70245;Laerm;57637;49.272;8.590;2023-04-12T06:17:21;57.96;45.80;71.57;;
70245;Laerm;57637;49.272;8.590;2023-04-12T06:19:46;56.71;44.81;70.88;;
70245;Laerm;57637;49.272;8.590;2023-04-12T06:22:11;50.37;45.88;59.71;;
70245;Laerm;57637;49.272;8.590;2023-04-12T06:24:37;49.52;44.99;57.59;;
70245;Laerm;57637;49.272;8.590;2023-04-12T06:27:03;49.34;44.41;64.24;;
70245;Laerm;57637;49.272;8.590;2023-04-12T06:29:28;50.42;45.18;70.66;;
70245;Laerm;57637;49.272;8.590;2023-04-12T06:31:53;49.31;44.25;58.62;;
70245;Laerm;57637;49.272;8.590;2023-04-12T06:34:19;50.66;44.98;59.09;;
70245;Laerm;57637;49.272;8.590;2023-04-12T06:36:44;50.26;45.35;59.78;;
70245;Laerm;57637;49.272;8.590;2023-04-12T06:39:11;50.49;45.27;67.94;;
70245;Laerm;57637;49.272;8.590;2023-04-12T06:41:38;52.11;44.98;66.67;;
70245;Laerm;57637;49.272;8.590;2023-04-12T06:44:03;51.06;44.51;68.91;;
70245;Laerm;57637;49.272;8.590;2023-04-12T06:46:29;54.07;45.18;69.57;;
70245;Laerm;57637;49.272;8.590;2023-04-12T06:48:55;51.90;44.75;71.83;;
70245;Laerm;57637;49.272;8.590;2023-04-12T06:51:20;52.18;44.54;68.30;;
70245;Laerm;57637;49.272;8.590;2023-04-12T06:53:46;48.60;43.31;63.38;;
70245;Laerm;57637;49.272;8.590;2023-04-12T06:56:11;49.84;44.31;65.77;;
70245;Laerm;57637;49.272;8.590;2023-04-12T06:58:36;49.28;43.22;63.54;;
70245;Laerm;57637;49.272;8.590;2023-04-12T07:01:08;48.13;44.00;55.90;;
70245;Laerm;57637;49.272;8.590;2023-04-12T07:03:37;47.95;43.61;60.81;;
70245;Laerm;57637;49.272;8.590;2023-04-12T07:06:03;50.52;43.73;68.57;;
70245;Laerm;57637;49.272;8.590;2023-04-12T07:08:29;56.32;43.42;73.31;;
70245;Laerm;57637;49.272;8.590;2023-04-12T07:10:55;48.18;43.84;54.72;;
70245;Laerm;57637;49.272;8.590;2023-04-12T07:13:20;48.60;43.01;68.42;;
70245;Laerm;57637;49.272;8.590;2023-04-12T07:15:47;47.48;42.36;63.77;;
70245;Laerm;57637;49.272;8.590;2023-04-12T07:18:13;47.59;43.04;66.85;;
70245;Laerm;57637;49.272;8.590;2023-04-12T07:20:38;46.65;42.84;53.55;;
70245;Laerm;57637;49.272;8.590;2023-04-12T07:23:04;46.94;43.79;54.18;;
70245;Laerm;57637;49.272;8.590;2023-04-12T07:25:29;47.18;43.25;58.26;;
70245;Laerm;57637;49.272;8.590;2023-04-12T07:27:54;48.29;43.92;59.98;;
70245;Laerm;57637;49.272;8.590;2023-04-12T07:30:20;48.15;44.22;59.48;;
70245;Laerm;57637;49.272;8.590;2023-04-12T07:32:45;50.67;45.29;75.06;;
70245;Laerm;57637;49.272;8.590;2023-04-12T07:35:11;49.99;45.35;64.14;;
70245;Laerm;57637;49.272;8.590;2023-04-12T07:37:36;49.08;45.10;62.95;;
70245;Laerm;57637;49.272;8.590;2023-04-12T07:40:02;48.59;44.11;62.81;;
70245;Laerm;57637;49.272;8.590;2023-04-12T07:42:27;50.11;44.08;74.76;;
70245;Laerm;57637;49.272;8.590;2023-04-12T07:44:52;49.30;45.61;59.14;;
70245;Laerm;57637;49.272;8.590;2023-04-12T07:47:18;50.98;45.24;60.28;;
70245;Laerm;57637;49.272;8.590;2023-04-12T07:49:43;51.58;46.60;62.58;;
70245;Laerm;57637;49.272;8.590;2023-04-12T07:52:09;61.97;46.35;78.70;;
70245;Laerm;57637;49.272;8.590;2023-04-12T07:54:34;49.50;45.77;63.81;;
70245;Laerm;57637;49.272;8.590;2023-04-12T07:57:00;50.96;45.13;68.27;;
70245;Laerm;57637;49.272;8.590;2023-04-12T07:59:30;50.87;44.37;72.15;;
70245;Laerm;57637;49.272;8.590;2023-04-12T08:01:56;53.43;44.14;75.13;;
70245;Laerm;57637;49.272;8.590;2023-04-12T08:04:21;50.03;43.05;73.17;;
70245;Laerm;57637;49.272;8.590;2023-04-12T08:06:47;50.84;44.75;73.87;;
70245;Laerm;57637;49.272;8.590;2023-04-12T08:09:12;50.37;44.75;64.85;;
70245;Laerm;57637;49.272;8.590;2023-04-12T08:11:39;53.80;44.10;76.23;;
70245;Laerm;57637;49.272;8.590;2023-04-12T08:14:04;53.83;45.62;74.08;;
70245;Laerm;57637;49.272;8.590;2023-04-12T08:16:30;50.20;44.41;65.72;;
70245;Laerm;57637;49.272;8.590;2023-04-12T08:18:56;51.83;44.71;64.16;;
70245;Laerm;57637;49.272;8.590;2023-04-12T08:21:22;51.36;45.35;63.34;;
70245;Laerm;57637;49.272;8.590;2023-04-12T08:23:47;54.09;44.15;71.77;;
70245;Laerm;57637;49.272;8.590;2023-04-12T08:26:15;49.57;43.43;67.67;;
70245;Laerm;57637;49.272;8.590;2023-04-12T08:28:40;46.66;42.42;57.00;;
70245;Laerm;57637;49.272;8.590;2023-04-12T08:31:05;47.12;43.30;56.28;;
70245;Laerm;57637;49.272;8.590;2023-04-12T08:33:32;48.03;42.95;63.72;;
70245;Laerm;57637;49.272;8.590;2023-04-12T08:35:57;52.11;44.04;75.27;;
70245;Laerm;57637;49.272;8.590;2023-04-12T08:38:22;50.21;42.93;72.78;;
70245;Laerm;57637;49.272;8.590;2023-04-12T08:40:50;51.09;42.52;65.80;;
70245;Laerm;57637;49.272;8.590;2023-04-12T08:43:16;51.80;43.34;67.04;;
70245;Laerm;57637;49.272;8.590;2023-04-12T08:45:42;50.87;42.59;67.65;;
70245;Laerm;57637;49.272;8.590;2023-04-12T08:48:08;50.60;41.68;67.61;;
70245;Laerm;57637;49.272;8.590;2023-04-12T08:50:34;46.53;41.56;58.66;;
70245;Laerm;57637;49.272;8.590;2023-04-12T08:52:59;47.70;42.11;60.15;;
70245;Laerm;57637;49.272;8.590;2023-04-12T08:55:25;45.57;41.25;57.36;;
70245;Laerm;57637;49.272;8.590;2023-04-12T08:57:53;48.02;41.80;67.35;;
70245;Laerm;57637;49.272;8.590;2023-04-12T09:00:23;50.58;39.75;66.16;;
70245;Laerm;57637;49.272;8.590;2023-04-12T09:02:48;52.60;41.07;67.96;;
70245;Laerm;57637;49.272;8.590;2023-04-12T09:05:14;49.57;39.92;66.93;;
70245;Laerm;57637;49.272;8.590;2023-04-12T09:07:41;47.06;40.47;68.32;;
70245;Laerm;57637;49.272;8.590;2023-04-12T09:10:07;46.09;40.32;59.12;;
70245;Laerm;57637;49.272;8.590;2023-04-12T09:12:32;47.49;39.91;65.30;;
70245;Laerm;57637;49.272;8.590;2023-04-12T09:15:12;50.83;41.08;72.99;;
70245;Laerm;57637;49.272;8.590;2023-04-12T09:17:39;49.36;40.31;68.83;;
70245;Laerm;57637;49.272;8.590;2023-04-12T09:20:25;49.16;40.93;65.77;;
70245;Laerm;57637;49.272;8.590;2023-04-12T09:22:51;49.93;40.39;65.30;;
70245;Laerm;57637;49.272;8.590;2023-04-12T09:25:35;47.14;40.88;66.84;;
70245;Laerm;57637;49.272;8.590;2023-04-12T09:28:00;44.79;40.06;58.23;;
70245;Laerm;57637;49.272;8.590;2023-04-12T09:30:26;58.44;40.82;78.62;;
70245;Laerm;57637;49.272;8.590;2023-04-12T09:32:51;52.06;39.79;72.11;;
70245;Laerm;57637;49.272;8.590;2023-04-12T09:35:32;57.66;41.18;78.43;;
70245;Laerm;57637;49.272;8.590;2023-04-12T09:38:06;48.80;39.50;70.54;;
70245;Laerm;57637;49.272;8.590;2023-04-12T09:40:32;45.10;40.70;55.85;;
70245;Laerm;57637;49.272;8.590;2023-04-12T09:43:01;49.65;41.36;66.63;;
70245;Laerm;57637;49.272;8.590;2023-04-12T09:45:26;45.73;39.49;55.46;;
70245;Laerm;57637;49.272;8.590;2023-04-12T09:47:53;46.12;40.04;63.00;;
70245;Laerm;57637;49.272;8.590;2023-04-12T09:50:29;45.64;41.04;62.03;;
70245;Laerm;57637;49.272;8.590;2023-04-12T09:52:57;46.33;39.86;64.33;;
70245;Laerm;57637;49.272;8.590;2023-04-12T09:55:25;48.32;39.51;67.72;;
70245;Laerm;57637;49.272;8.590;2023-04-12T09:57:51;48.75;41.44;66.94;;
70245;Laerm;57637;49.272;8.590;2023-04-12T10:00:18;47.08;41.82;63.31;;
70245;Laerm;57637;49.272;8.590;2023-04-12T10:02:50;49.41;41.39;63.40;;
70245;Laerm;57637;49.272;8.590;2023-04-12T10:05:18;46.87;41.88;58.12;;
70245;Laerm;57637;49.272;8.590;2023-04-12T10:07:45;45.91;40.08;58.64;;
70245;Laerm;57637;49.272;8.590;2023-04-12T10:10:12;43.25;38.34;60.02;;
70245;Laerm;57637;49.272;8.590;2023-04-12T10:12:39;44.45;38.11;58.93;;
70245;Laerm;57637;49.272;8.590;2023-04-12T10:15:09;46.08;37.76;63.08;;
70245;Laerm;57637;49.272;8.590;2023-04-12T10:17:44;45.93;37.03;58.77;;
70245;Laerm;57637;49.272;8.590;2023-04-12T10:20:14;46.12;38.42;63.35;;
70245;Laerm;57637;49.272;8.590;2023-04-12T10:22:44;45.24;38.89;58.09;;
70245;Laerm;57637;49.272;8.590;2023-04-12T10:25:15;42.79;37.57;57.28;;
70245;Laerm;57637;49.272;8.590;2023-04-12T10:27:45;56.17;39.01;76.18;;
70245;Laerm;57637;49.272;8.590;2023-04-12T10:30:29;59.55;37.73;81.17;;
70245;Laerm;57637;49.272;8.590;2023-04-12T10:35:26;45.62;37.81;59.11;;
70245;Laerm;57637;49.272;8.590;2023-04-12T10:38:00;53.14;39.48;75.97;;
70245;Laerm;57637;49.272;8.590;2023-04-12T10:40:32;43.46;37.64;65.86;;
70245;Laerm;57637;49.272;8.590;2023-04-12T10:43:27;46.38;38.11;69.70;;
70245;Laerm;57637;49.272;8.590;2023-04-12T10:45:53;43.96;37.63;62.41;;
70245;Laerm;57637;49.272;8.590;2023-04-12T10:48:35;44.25;37.14;62.90;;
70245;Laerm;57637;49.272;8.590;2023-04-12T10:51:22;46.70;38.72;64.79;;
70245;Laerm;57637;49.272;8.590;2023-04-12T10:53:52;45.76;38.21;66.88;;
70245;Laerm;57637;49.272;8.590;2023-04-12T10:58:58;42.87;36.55;53.67;;
70245;Laerm;57637;49.272;8.590;2023-04-12T11:01:24;43.52;37.34;55.26;;
70245;Laerm;57637;49.272;8.590;2023-04-12T11:04:05;42.65;36.99;56.05;;
70245;Laerm;57637;49.272;8.590;2023-04-12T11:06:41;44.88;36.81;62.56;;
70245;Laerm;57637;49.272;8.590;2023-04-12T11:11:48;44.36;37.23;64.28;;
70245;Laerm;57637;49.272;8.590;2023-04-12T11:14:14;43.11;37.16;69.16;;
70245;Laerm;57637;49.272;8.590;2023-04-12T11:19:52;47.38;37.85;68.33;;
70245;Laerm;57637;49.272;8.590;2023-04-12T11:22:19;48.82;36.96;67.19;;
70245;Laerm;57637;49.272;8.590;2023-04-12T11:24:47;45.53;36.76;60.93;;
70245;Laerm;57637;49.272;8.590;2023-04-12T11:27:14;45.47;37.36;63.16;;
70245;Laerm;57637;49.272;8.590;2023-04-12T11:29:43;43.40;36.72;60.72;;
70245;Laerm;57637;49.272;8.590;2023-04-12T11:32:11;43.84;36.37;64.55;;
70245;Laerm;57637;49.272;8.590;2023-04-12T11:34:42;49.01;36.62;66.68;;
70245;Laerm;57637;49.272;8.590;2023-04-12T11:37:08;48.79;37.05;64.77;;
70245;Laerm;57637;49.272;8.590;2023-04-12T11:39:36;48.74;35.96;66.62;;
70245;Laerm;57637;49.272;8.590;2023-04-12T11:42:03;48.08;36.57;65.73;;
70245;Laerm;57637;49.272;8.590;2023-04-12T11:44:31;45.28;36.21;58.56;;
70245;Laerm;57637;49.272;8.590;2023-04-12T11:46:57;45.46;35.82;60.30;;
70245;Laerm;57637;49.272;8.590;2023-04-12T11:49:24;45.88;35.48;65.85;;
70245;Laerm;57637;49.272;8.590;2023-04-12T11:52:03;48.29;37.47;64.02;;
70245;Laerm;57637;49.272;8.590;2023-04-12T11:54:29;46.05;35.29;57.27;;
70245;Laerm;57637;49.272;8.590;2023-04-12T11:56:56;42.96;36.38;57.81;;
70245;Laerm;57637;49.272;8.590;2023-04-12T11:59:22;41.52;35.27;57.72;;
70245;Laerm;57637;49.272;8.590;2023-04-12T12:01:50;59.93;34.42;77.48;;
70245;Laerm;57637;49.272;8.590;2023-04-12T12:04:16;54.49;35.99;73.76;;
70245;Laerm;57637;49.272;8.590;2023-04-12T12:06:42;47.02;35.75;68.98;;
70245;Laerm;57637;49.272;8.590;2023-04-12T12:09:08;42.86;35.10;64.99;;
70245;Laerm;57637;49.272;8.590;2023-04-12T12:11:33;42.71;35.93;55.98;;
70245;Laerm;57637;49.272;8.590;2023-04-12T12:14:00;46.53;36.22;68.18;;
70245;Laerm;57637;49.272;8.590;2023-04-12T12:16:27;46.16;37.38;58.96;;
70245;Laerm;57637;49.272;8.590;2023-04-12T12:18:53;42.68;35.23;60.51;;
70245;Laerm;57637;49.272;8.590;2023-04-12T12:21:19;42.08;35.65;63.74;;
70245;Laerm;57637;49.272;8.590;2023-04-12T12:23:46;43.75;36.50;57.64;;
70245;Laerm;57637;49.272;8.590;2023-04-12T12:26:26;42.07;36.07;59.07;;
70245;Laerm;57637;49.272;8.590;2023-04-12T12:28:56;44.54;35.32;61.48;;
70245;Laerm;57637;49.272;8.590;2023-04-12T12:31:25;44.31;35.65;65.04;;
70245;Laerm;57637;49.272;8.590;2023-04-12T12:33:56;48.04;35.25;68.24;;
70245;Laerm;57637;49.272;8.590;2023-04-12T12:36:32;54.34;35.14;70.61;;
70245;Laerm;57637;49.272;8.590;2023-04-12T12:39:11;46.87;34.85;71.48;;
70245;Laerm;57637;49.272;8.590;2023-04-12T12:41:37;43.09;34.75;62.53;;
70245;Laerm;57637;49.272;8.590;2023-04-12T12:44:03;46.35;35.88;65.47;;
70245;Laerm;57637;49.272;8.590;2023-04-12T12:46:28;54.57;35.55;69.49;;
70245;Laerm;57637;49.272;8.590;2023-04-12T12:48:54;50.55;35.64;66.84;;
70245;Laerm;57637;49.272;8.590;2023-04-12T12:51:19;49.39;36.40;69.01;;
70245;Laerm;57637;49.272;8.590;2023-04-12T12:53:46;42.23;36.19;57.95;;
70245;Laerm;57637;49.272;8.590;2023-04-12T12:56:12;42.44;35.90;54.99;;
70245;Laerm;57637;49.272;8.590;2023-04-12T12:58:38;42.48;35.60;57.39;;
70245;Laerm;57637;49.272;8.590;2023-04-12T13:01:04;43.36;36.19;60.44;;
70245;Laerm;57637;49.272;8.590;2023-04-12T13:03:30;42.64;35.52;57.71;;
70245;Laerm;57637;49.272;8.590;2023-04-12T13:05:56;41.39;35.46;52.71;;
70245;Laerm;57637;49.272;8.590;2023-04-12T13:08:25;44.35;34.85;63.39;;
70245;Laerm;57637;49.272;8.590;2023-04-12T13:10:50;46.17;34.58;66.90;;
70245;Laerm;57637;49.272;8.590;2023-04-12T13:13:19;42.46;34.43;62.56;;
70245;Laerm;57637;49.272;8.590;2023-04-12T13:15:45;44.76;33.85;69.08;;
70245;Laerm;57637;49.272;8.590;2023-04-12T13:18:15;40.19;34.55;57.28;;
70245;Laerm;57637;49.272;8.590;2023-04-12T13:20:41;47.65;34.75;70.15;;
70245;Laerm;57637;49.272;8.590;2023-04-12T13:23:07;47.74;35.28;67.46;;
70245;Laerm;57637;49.272;8.590;2023-04-12T13:25:32;43.78;35.07;64.54;;
70245;Laerm;57637;49.272;8.590;2023-04-12T13:27:58;46.71;35.81;65.96;;
70245;Laerm;57637;49.272;8.590;2023-04-12T13:30:23;40.79;35.18;60.71;;
70245;Laerm;57637;49.272;8.590;2023-04-12T13:32:48;47.92;34.79;68.40;;
70245;Laerm;57637;49.272;8.590;2023-04-12T13:35:14;47.23;39.02;58.53;;
70245;Laerm;57637;49.272;8.590;2023-04-12T13:37:39;48.61;36.71;65.23;;
70245;Laerm;57637;49.272;8.590;2023-04-12T13:40:06;46.04;36.40;60.89;;
70245;Laerm;57637;49.272;8.590;2023-04-12T13:42:32;51.16;43.43;58.41;;
70245;Laerm;57637;49.272;8.590;2023-04-12T13:44:57;51.39;48.12;56.02;;
70245;Laerm;57637;49.272;8.590;2023-04-12T13:47:22;49.50;45.01;56.68;;
70245;Laerm;57637;49.272;8.590;2023-04-12T13:49:48;46.03;38.16;53.80;;
70245;Laerm;57637;49.272;8.590;2023-04-12T13:52:13;44.97;37.55;54.93;;
70245;Laerm;57637;49.272;8.590;2023-04-12T13:54:39;46.80;40.91;58.39;;
70245;Laerm;57637;49.272;8.590;2023-04-12T13:57:08;50.67;38.93;59.53;;
70245;Laerm;57637;49.272;8.590;2023-04-12T13:59:34;49.95;42.67;66.41;;
70245;Laerm;57637;49.272;8.590;2023-04-12T14:02:00;46.27;37.53;60.79;;
70245;Laerm;57637;49.272;8.590;2023-04-12T14:04:27;46.88;36.85;64.63;;
70245;Laerm;57637;49.272;8.590;2023-04-12T14:06:52;50.85;38.08;65.92;;
70245;Laerm;57637;49.272;8.590;2023-04-12T14:09:29;48.13;37.40;66.37;;
70245;Laerm;57637;49.272;8.590;2023-04-12T14:11:56;50.12;40.12;58.68;;